createdAt,value
2022-10-05T00:02:36.459Z,0
2022-10-05T00:21:49.573Z,0
2022-10-05T00:31:26.604Z,0
2022-10-05T00:41:03.966Z,0
2022-10-05T01:00:18.575Z,0
2022-10-05T01:09:55.849Z,0
2022-10-05T01:19:32.647Z,0
2022-10-05T01:29:09.308Z,0
2022-10-05T01:38:45.945Z,0
2022-10-05T01:57:59.403Z,0
2022-10-05T02:07:35.894Z,0
2022-10-05T02:17:12.415Z,0
2022-10-05T02:26:49.635Z,0
2022-10-05T02:36:26.197Z,0
2022-10-05T02:46:03.017Z,0
2022-10-05T02:55:39.587Z,0
2022-10-05T03:05:16.654Z,0
2022-10-05T03:14:53.492Z,0
2022-10-05T03:24:30.276Z,0
2022-10-05T03:34:06.650Z,0
2022-10-05T03:43:43.368Z,0
2022-10-05T03:53:21.112Z,0
2022-10-05T04:02:58.399Z,0
2022-10-05T04:12:35.209Z,0
2022-10-05T04:31:49.062Z,0
2022-10-05T04:41:25.530Z,0
2022-10-05T04:51:02.838Z,0
2022-10-05T05:00:40.742Z,0
2022-10-05T05:10:17.953Z,0
2022-10-05T05:19:55.619Z,5.63
2022-10-05T05:29:33.044Z,11.25
2022-10-05T05:39:10.226Z,22.5
2022-10-05T05:48:47.465Z,39.38
2022-10-05T05:58:25.035Z,50.63
2022-10-05T06:08:02.436Z,61.88
2022-10-05T06:17:40.473Z,67.5
2022-10-05T06:27:18.013Z,78.75
2022-10-05T06:46:33.161Z,106.88
2022-10-05T06:56:11.311Z,135
2022-10-05T07:05:49.450Z,157.5
2022-10-05T07:15:27.781Z,174.38
2022-10-05T07:25:05.719Z,180
2022-10-05T07:34:43.571Z,185.63
2022-10-05T07:44:21.053Z,208.13
2022-10-05T07:53:58.886Z,225
2022-10-05T08:03:37.041Z,241.88
2022-10-05T08:13:15.189Z,258.75
2022-10-05T08:22:52.614Z,258.75
2022-10-05T08:32:30.162Z,236.25
2022-10-05T08:42:07.680Z,270
2022-10-05T09:01:24.306Z,303.75
2022-10-05T09:20:40.149Z,298.13
2022-10-05T09:30:18.388Z,343.13
2022-10-05T09:40:00.515Z,354.38
2022-10-05T09:49:34.505Z,382.5
2022-10-05T09:59:11.867Z,393.75
2022-10-05T10:18:29.242Z,438.75
2022-10-05T10:28:32.380Z,3566.25
2022-10-05T10:38:21.020Z,3628.13
2022-10-05T10:57:47.978Z,4235.63
2022-10-05T11:07:30.047Z,4016.25
2022-10-05T11:17:10.904Z,4426.88
2022-10-05T11:26:51.129Z,4066.88
2022-10-05T11:36:25.130Z,4466.25
2022-10-05T11:55:44.725Z,4207.5
2022-10-05T12:05:18.718Z,3256.88
2022-10-05T12:14:58.235Z,2790
2022-10-05T12:24:37.397Z,3532.5
2022-10-05T12:34:18.258Z,4252.5
2022-10-05T12:43:56.724Z,4190.63
2022-10-05T12:53:25.284Z,3735
2022-10-05T13:03:09.606Z,3853.13
2022-10-05T13:12:47.685Z,3785.63
2022-10-05T13:22:24.299Z,2711.25
2022-10-05T13:31:59.081Z,3718.13
2022-10-05T13:41:35.780Z,2283.75
2022-10-05T13:51:08.674Z,2435.63
2022-10-05T14:00:44.852Z,1681.88
2022-10-05T14:10:10.854Z,1141.88
2022-10-05T14:19:45.401Z,1299.38
2022-10-05T14:29:24.014Z,1141.88
2022-10-05T14:48:48.588Z,1389.38
2022-10-05T14:58:24.046Z,1130.63
2022-10-05T15:07:52.113Z,1057.5
2022-10-05T15:17:32.603Z,675
2022-10-05T15:27:00.996Z,241.88
2022-10-05T15:36:32.638Z,174.38
2022-10-05T15:46:06.634Z,135
2022-10-05T15:55:42.137Z,112.5
2022-10-05T16:05:18.200Z,90
2022-10-05T16:14:54.442Z,73.13
2022-10-05T16:24:30.825Z,56.25
2022-10-05T16:34:06.929Z,28.13
2022-10-05T16:43:43.027Z,11.25
2022-10-05T16:53:19.112Z,5.63
2022-10-05T17:02:55.545Z,0
2022-10-05T17:12:31.937Z,0
2022-10-05T17:22:08.388Z,0
2022-10-05T17:41:21.440Z,0
2022-10-05T17:50:57.839Z,0
2022-10-05T18:00:35.009Z,0
2022-10-05T18:10:12.107Z,0
2022-10-05T18:19:48.874Z,0
2022-10-05T18:29:25.956Z,0
2022-10-05T18:39:03.359Z,0
2022-10-05T18:48:40.439Z,0
2022-10-05T18:58:17.642Z,0
2022-10-05T19:07:55.449Z,0
2022-10-05T19:17:33.582Z,0
2022-10-05T19:27:11.769Z,0
2022-10-05T19:36:49.272Z,0
2022-10-05T19:46:28.440Z,0
2022-10-05T19:56:06.488Z,0
2022-10-05T20:05:44.163Z,0
2022-10-05T20:15:21.168Z,0
2022-10-05T20:24:58.089Z,0
2022-10-05T20:34:34.302Z,0
2022-10-05T20:44:10.492Z,0
2022-10-05T20:53:47.065Z,0
2022-10-05T21:03:23.796Z,0
2022-10-05T21:13:00.328Z,0
2022-10-05T21:22:37.232Z,0
2022-10-05T21:32:13.915Z,0
2022-10-05T21:41:51.305Z,0
2022-10-05T21:51:28.429Z,0
2022-10-05T22:01:05.565Z,0
2022-10-05T22:10:42.992Z,0
2022-10-05T22:20:20.188Z,0
2022-10-05T22:29:57.639Z,0
2022-10-05T22:39:34.592Z,0
2022-10-05T22:49:11.845Z,0
2022-10-05T22:58:49.862Z,0
2022-10-05T23:08:27.801Z,0
2022-10-05T23:18:04.262Z,0
2022-10-05T23:27:41.907Z,0
2022-10-05T23:37:19.043Z,0
2022-10-05T23:46:55.923Z,0
2022-10-05T23:56:33.288Z,0
